createdAt,value
2022-08-02T00:02:20.436Z,101179.41
2022-08-02T00:04:46.691Z,101197.66
2022-08-02T00:07:12.925Z,101284.03
2022-08-02T00:09:39.169Z,101274.97
2022-08-02T00:12:05.470Z,101282.84
2022-08-02T00:14:31.724Z,101304.56
2022-08-02T00:16:57.962Z,101280.47
2022-08-02T00:19:24.214Z,101270.81
2022-08-02T00:21:50.449Z,101260.31
2022-08-02T00:24:29.492Z,101233.53
2022-08-02T00:26:56.477Z,101207.28
2022-08-02T00:29:22.726Z,101194.94
2022-08-02T00:31:48.957Z,101191.22
2022-08-02T00:34:28.703Z,101176.00
2022-08-02T00:36:57.370Z,101167.09
2022-08-02T00:39:35.032Z,101157.03
2022-08-02T00:42:01.957Z,101163.38
2022-08-02T00:44:28.208Z,101206.34
2022-08-02T00:46:54.449Z,101224.25
2022-08-02T00:49:21.212Z,101224.31
2022-08-02T00:51:47.720Z,101268.28
2022-08-02T00:54:13.952Z,101298.66
2022-08-02T00:56:40.247Z,101338.88
2022-08-02T00:59:16.111Z,101344.09
2022-08-02T01:01:55.999Z,101334.22
2022-08-02T01:04:30.399Z,101316.63
2022-08-02T01:06:58.519Z,101315.81
2022-08-02T01:09:24.758Z,101286.03
2022-08-02T01:11:50.992Z,101261.94
2022-08-02T01:14:17.217Z,101244.75
2022-08-02T01:16:46.227Z,101285.03
2022-08-02T01:19:20.530Z,101288.28
2022-08-02T01:21:53.892Z,101297.88
2022-08-02T01:24:38.242Z,101330.88
2022-08-02T01:27:09.433Z,101387.38
2022-08-02T01:29:37.709Z,101385.97
2022-08-02T01:32:09.348Z,101352.22
2022-08-02T01:34:37.093Z,101330.53
2022-08-02T01:37:05.872Z,101354.47
2022-08-02T01:39:32.689Z,101358.31
2022-08-02T01:41:59.195Z,101325.38
2022-08-02T01:44:27.679Z,101296.41
2022-08-02T01:46:54.064Z,101264.38
2022-08-02T01:49:20.533Z,101239.56
2022-08-02T01:51:47.081Z,101219.06
2022-08-02T01:54:15.179Z,101201.72
2022-08-02T01:56:41.648Z,101191.94
2022-08-02T01:59:08.314Z,101197.84
2022-08-02T02:01:34.609Z,101196.84
2022-08-02T02:04:00.908Z,101184.97
2022-08-02T02:06:27.153Z,101181.44
2022-08-02T02:08:53.378Z,101215.91
2022-08-02T02:12:08.646Z,101200.38
2022-08-02T02:14:06.209Z,101226.78
2022-08-02T02:16:32.454Z,101207.75
2022-08-02T02:18:59.851Z,101219.19
2022-08-02T02:21:26.084Z,101262.31
2022-08-02T02:23:52.313Z,101246.25
2022-08-02T02:26:20.896Z,101221.03
2022-08-02T02:28:58.073Z,101234.94
2022-08-02T02:31:24.322Z,101224.34
2022-08-02T02:33:52.669Z,101230.72
2022-08-02T02:36:18.920Z,101231.56
2022-08-02T02:38:45.149Z,101217.13
2022-08-02T02:41:11.398Z,101208.47
2022-08-02T02:43:37.638Z,101191.00
2022-08-02T02:46:04.057Z,101172.94
2022-08-02T02:48:30.281Z,101193.09
2022-08-02T02:50:56.528Z,101189.59
2022-08-02T02:53:22.779Z,101196.25
2022-08-02T02:56:01.725Z,101233.00
2022-08-02T02:58:29.176Z,101260.59
2022-08-02T03:00:55.514Z,101269.38
2022-08-02T03:03:21.793Z,101267.00
2022-08-02T03:05:49.121Z,101251.09
2022-08-02T03:08:15.368Z,101215.97
2022-08-02T03:10:42.450Z,101204.28
2022-08-02T03:13:08.701Z,101230.47
2022-08-02T03:15:36.896Z,101224.31
2022-08-02T03:18:03.136Z,101215.81
2022-08-02T03:20:29.373Z,101227.72
2022-08-02T03:22:55.621Z,101247.94
2022-08-02T03:25:21.844Z,101294.63
2022-08-02T03:27:48.094Z,101308.00
2022-08-02T03:30:14.566Z,101283.34
2022-08-02T03:32:41.456Z,101256.22
2022-08-02T03:35:07.926Z,101215.91
2022-08-02T03:37:34.173Z,101200.81
2022-08-02T03:40:00.402Z,101193.81
2022-08-02T03:42:26.886Z,101190.75
2022-08-02T03:44:53.384Z,101196.28
2022-08-02T03:47:19.622Z,101183.03
2022-08-02T03:49:45.853Z,101226.03
2022-08-02T03:52:12.644Z,101259.22
2022-08-02T03:54:45.473Z,101244.47
2022-08-02T03:57:12.281Z,101225.69
2022-08-02T03:59:41.881Z,101209.53
2022-08-02T04:02:08.322Z,101190.00
2022-08-02T04:04:34.847Z,101193.25
2022-08-02T04:07:01.086Z,101228.53
2022-08-02T04:09:27.329Z,101222.16
2022-08-02T04:11:53.574Z,101198.91
2022-08-02T04:14:19.830Z,101167.22
2022-08-02T04:16:52.886Z,101169.84
2022-08-02T04:19:19.841Z,101190.63
2022-08-02T04:21:51.865Z,101225.81
2022-08-02T04:24:19.502Z,101263.81
2022-08-02T04:26:48.003Z,101339.28
2022-08-02T04:29:15.928Z,101356.22
2022-08-02T04:31:42.156Z,101319.44
2022-08-02T04:34:08.405Z,101282.44
2022-08-02T04:36:35.497Z,101262.47
2022-08-02T04:39:01.849Z,101265.63
2022-08-02T04:41:40.707Z,101337.47
2022-08-02T04:44:10.057Z,101347.91
2022-08-02T04:46:36.429Z,101356.59
2022-08-02T04:49:02.746Z,101393.47
2022-08-02T04:51:38.302Z,101412.28
2022-08-02T04:54:09.227Z,101419.53
2022-08-02T04:56:36.405Z,101414.94
2022-08-02T04:59:02.651Z,101397.75
2022-08-02T05:01:29.169Z,101365.13
2022-08-02T05:03:55.414Z,101317.22
2022-08-02T05:06:21.645Z,101288.03
2022-08-02T05:08:52.314Z,101274.28
2022-08-02T05:11:19.614Z,101269.38
2022-08-02T05:13:58.888Z,101251.25
2022-08-02T05:16:31.064Z,101251.34
2022-08-02T05:18:58.189Z,101270.28
2022-08-02T05:21:24.439Z,101269.31
2022-08-02T05:23:50.694Z,101268.16
2022-08-02T05:26:16.932Z,101230.13
2022-08-02T05:28:43.171Z,101275.31
2022-08-02T05:31:13.173Z,101313.09
2022-08-02T05:33:39.715Z,101327.59
2022-08-02T05:36:06.126Z,101337.22
2022-08-02T05:38:32.366Z,101342.19
2022-08-02T05:41:03.123Z,101323.28
2022-08-02T05:43:29.768Z,101314.25
2022-08-02T05:45:56.022Z,101322.28
2022-08-02T05:48:23.731Z,101344.34
2022-08-02T05:50:54.190Z,101367.50
2022-08-02T05:53:36.382Z,101316.47
2022-08-02T05:56:08.621Z,101226.16
2022-08-02T05:58:36.337Z,101217.91
2022-08-02T06:01:02.870Z,101092.28
2022-08-02T06:03:32.646Z,100975.34
2022-08-02T06:05:59.339Z,100798.09
2022-08-02T06:08:28.557Z,100670.34
2022-08-02T06:10:55.172Z,100740.91
2022-08-02T06:13:21.406Z,100697.81
2022-08-02T06:15:53.596Z,100662.78
2022-08-02T06:18:20.050Z,100645.38
2022-08-02T06:20:55.728Z,100626.84
2022-08-02T06:23:21.964Z,100797.25
2022-08-02T06:25:51.680Z,100668.91
2022-08-02T06:28:18.080Z,100791.16
2022-08-02T06:30:44.345Z,100734.44
2022-08-02T06:33:10.599Z,100875.56
2022-08-02T06:35:43.505Z,101010.13
2022-08-02T06:38:09.744Z,101180.44
2022-08-02T06:40:36.344Z,101254.53
2022-08-02T06:43:12.463Z,101281.88
2022-08-02T06:45:38.849Z,101294.59
2022-08-02T06:48:05.540Z,101330.03
2022-08-02T06:50:31.854Z,101441.66
2022-08-02T06:52:58.110Z,101431.56
2022-08-02T06:55:24.359Z,101396.09
2022-08-02T06:57:50.608Z,101437.38
2022-08-02T07:00:20.130Z,101467.06
2022-08-02T07:02:46.406Z,101441.34
2022-08-02T07:05:13.258Z,101469.53
2022-08-02T07:07:39.506Z,101452.06
2022-08-02T07:10:05.828Z,101482.47
2022-08-02T07:12:32.697Z,101503.53
2022-08-02T07:15:03.686Z,101479.22
2022-08-02T07:17:29.996Z,101458.19
2022-08-02T07:19:56.486Z,101441.09
2022-08-02T07:22:22.734Z,101255.06
2022-08-02T07:24:49.194Z,101212.16
2022-08-02T07:27:15.467Z,101302.78
2022-08-02T07:29:45.216Z,101165.41
2022-08-02T07:32:16.926Z,101248.06
2022-08-02T07:34:50.252Z,101187.16
2022-08-02T07:37:25.612Z,101117.78
2022-08-02T07:40:03.194Z,101090.91
2022-08-02T07:42:32.681Z,101212.91
2022-08-02T07:44:58.920Z,101067.19
2022-08-02T07:47:25.165Z,100983.69
2022-08-02T07:49:51.397Z,100864.03
2022-08-02T07:52:17.635Z,100826.09
2022-08-02T07:54:43.876Z,100765.25
2022-08-02T07:57:10.109Z,100903.25
2022-08-02T07:59:36.355Z,100886.16
2022-08-02T08:02:02.696Z,100918.81
2022-08-02T08:04:28.990Z,100757.78
2022-08-02T08:06:55.228Z,100797.81
2022-08-02T08:09:21.492Z,100914.66
2022-08-02T08:11:47.726Z,101012.75
2022-08-02T08:14:16.854Z,101036.47
2022-08-02T08:16:43.375Z,100969.22
2022-08-02T08:19:09.625Z,100977.22
2022-08-02T08:21:35.857Z,100918.25
2022-08-02T08:24:02.102Z,100444.63
2022-08-02T08:26:28.338Z,100706.72
2022-08-02T08:28:54.592Z,100763.97
2022-08-02T08:31:20.844Z,100488.38
2022-08-02T08:33:47.094Z,100584.19
2022-08-02T08:36:13.341Z,100718.34
2022-08-02T08:38:39.610Z,100596.59
2022-08-02T08:41:05.842Z,100504.88
2022-08-02T08:43:34.631Z,100858.38
2022-08-02T08:46:00.870Z,100957.38
2022-08-02T08:48:31.037Z,100637.84
2022-08-02T08:51:01.149Z,100392.22
2022-08-02T08:53:36.857Z,100338.47
2022-08-02T08:56:03.384Z,100687.56
2022-08-02T08:58:29.628Z,100544.84
2022-08-02T09:00:55.934Z,100772.88
2022-08-02T09:03:22.427Z,100372.91
2022-08-02T09:05:48.660Z,100368.59
2022-08-02T09:08:16.956Z,100521.84
2022-08-02T09:10:44.305Z,100396.16
2022-08-02T09:13:38.625Z,100385.06
2022-08-02T09:15:56.958Z,100295.56
2022-08-02T09:18:33.100Z,100390.03
2022-08-02T09:21:00.189Z,100428.22
2022-08-02T09:23:57.048Z,100581.56
2022-08-02T09:26:23.358Z,100283.97
2022-08-02T09:28:50.337Z,100427.34
2022-08-02T09:31:20.351Z,100455.88
2022-08-02T09:33:50.518Z,100526.41
2022-08-02T09:36:16.748Z,100501.81
2022-08-02T09:38:53.222Z,100302.66
2022-08-02T09:41:20.283Z,100248.69
2022-08-02T09:44:03.457Z,100201.66
2022-08-02T09:46:32.387Z,100204.88
2022-08-02T09:49:04.591Z,100535.59
2022-08-02T09:51:34.491Z,100252.94
2022-08-02T09:54:08.482Z,100300.22
2022-08-02T09:56:46.060Z,99980.56
2022-08-02T09:59:12.598Z,99868.31
2022-08-02T10:01:38.941Z,99916.84
2022-08-02T10:04:06.287Z,99804.25
2022-08-02T10:06:32.782Z,99939.97
2022-08-02T10:08:59.010Z,99867.53
2022-08-02T10:11:26.082Z,99997.56
2022-08-02T10:13:52.317Z,100180.66
2022-08-02T10:16:18.904Z,100079.81
2022-08-02T10:18:45.145Z,99830.19
2022-08-02T10:21:15.500Z,99942.25
2022-08-02T10:23:42.606Z,99932.13
2022-08-02T10:26:08.866Z,100014.63
2022-08-02T10:28:35.107Z,99912.56
2022-08-02T10:31:01.469Z,99640.19
2022-08-02T10:33:31.006Z,99793.44
2022-08-02T10:36:06.682Z,99774.41
2022-08-02T10:38:33.662Z,99823.47
2022-08-02T10:40:59.914Z,100040.06
2022-08-02T10:43:32.128Z,99199.28
2022-08-02T10:46:17.346Z,99452.00
2022-08-02T10:49:01.427Z,99450.41
2022-08-02T10:51:47.676Z,99494.16
2022-08-02T10:54:17.621Z,99047.84
2022-08-02T10:56:47.432Z,99237.69
2022-08-02T10:59:23.204Z,99422.63
2022-08-02T11:01:49.448Z,99307.97
2022-08-02T11:04:15.685Z,99047.81
2022-08-02T11:07:00.460Z,99220.53
2022-08-02T11:09:32.803Z,99133.44
2022-08-02T11:12:00.284Z,99435.25
2022-08-02T11:14:26.516Z,99399.28
2022-08-02T11:16:55.740Z,98952.13
2022-08-02T11:19:22.301Z,99377.78
2022-08-02T11:22:07.021Z,98915.03
2022-08-02T11:24:33.681Z,98941.72
2022-08-02T11:27:03.601Z,98965.03
2022-08-02T11:29:33.632Z,98710.97
2022-08-02T11:32:05.087Z,98877.69
2022-08-02T11:34:37.382Z,98731.72
2022-08-02T11:37:04.186Z,99004.28
2022-08-02T11:39:30.422Z,98902.72
2022-08-02T11:41:57.933Z,99082.16
2022-08-02T11:44:25.393Z,99089.38
2022-08-02T11:46:55.452Z,99003.22
2022-08-02T11:49:21.756Z,98814.72
2022-08-02T11:52:00.956Z,98602.38
2022-08-02T11:54:35.247Z,98415.81
2022-08-02T11:57:20.179Z,98393.06
2022-08-02T11:59:50.604Z,98470.16
2022-08-02T12:02:16.922Z,98642.13
2022-08-02T12:04:49.830Z,98615.09
2022-08-02T12:07:16.078Z,98893.81
2022-08-02T12:09:42.944Z,98522.22
2022-08-02T12:12:09.312Z,98628.41
2022-08-02T12:14:41.178Z,98658.88
2022-08-02T12:17:07.431Z,98422.81
2022-08-02T12:19:33.799Z,98642.28
2022-08-02T12:22:14.077Z,98929.03
2022-08-02T12:24:41.060Z,99171.03
2022-08-02T12:27:07.343Z,99202.72
2022-08-02T12:29:58.511Z,99177.56
2022-08-02T12:32:23.913Z,99092.03
2022-08-02T12:35:00.326Z,99085.56
2022-08-02T12:37:26.570Z,98647.72
2022-08-02T12:39:52.826Z,99015.75
2022-08-02T12:42:19.071Z,99177.50
2022-08-02T12:44:55.128Z,98976.69
2022-08-02T12:47:21.731Z,99095.88
2022-08-02T12:50:08.107Z,99003.06
2022-08-02T12:52:34.382Z,98960.91
2022-08-02T12:55:00.639Z,99092.44
2022-08-02T12:57:26.891Z,99249.63
2022-08-02T12:59:53.339Z,99300.81
2022-08-02T13:02:20.379Z,99140.16
2022-08-02T13:04:49.700Z,99210.38
2022-08-02T13:07:17.060Z,99210.00
2022-08-02T13:09:43.315Z,99337.53
2022-08-02T13:12:09.640Z,99249.72
2022-08-02T13:14:41.819Z,99101.50
2022-08-02T13:17:08.343Z,99390.94
2022-08-02T13:19:35.784Z,99272.16
2022-08-02T13:22:03.940Z,99343.50
2022-08-02T13:24:39.875Z,99317.53
2022-08-02T13:27:16.932Z,99470.75
2022-08-02T13:29:43.181Z,99304.53
2022-08-02T13:32:09.700Z,99562.78
2022-08-02T13:34:36.179Z,99606.47
2022-08-02T13:37:02.613Z,99443.91
2022-08-02T13:39:28.849Z,99393.69
2022-08-02T13:41:55.084Z,99461.72
2022-08-02T13:44:23.539Z,99247.78
2022-08-02T13:47:05.182Z,99372.13
2022-08-02T13:49:50.506Z,99417.97
2022-08-02T13:52:20.014Z,99390.59
2022-08-02T13:54:46.301Z,99300.09
2022-08-02T13:57:12.565Z,99459.25
2022-08-02T13:59:57.316Z,99753.78
2022-08-02T14:02:25.222Z,99671.88
2022-08-02T14:04:51.619Z,99652.44
2022-08-02T14:07:22.033Z,99467.78
2022-08-02T14:09:48.302Z,99542.72
2022-08-02T14:12:19.281Z,99519.00
2022-08-02T14:14:47.413Z,99749.81
2022-08-02T14:17:13.654Z,99370.03
2022-08-02T14:19:40.225Z,99613.47
2022-08-02T14:22:12.527Z,99938.34
2022-08-02T14:24:39.294Z,99957.38
2022-08-02T14:27:05.531Z,99642.69
2022-08-02T14:29:31.805Z,99581.72
2022-08-02T14:32:00.680Z,99716.09
2022-08-02T14:34:27.555Z,99593.31
2022-08-02T14:36:54.309Z,99815.25
2022-08-02T14:39:24.007Z,99783.22
2022-08-02T14:44:30.645Z,99570.84
2022-08-02T14:46:57.025Z,99602.75
2022-08-02T14:49:32.936Z,99626.53
2022-08-02T14:52:03.990Z,99565.50
2022-08-02T14:54:31.168Z,99670.75
2022-08-02T14:57:09.280Z,99638.78
2022-08-02T14:59:35.676Z,99642.28
2022-08-02T15:02:09.580Z,99439.25
2022-08-02T15:04:43.260Z,99727.47
2022-08-02T15:07:12.827Z,99644.59
2022-08-02T15:09:39.746Z,99829.28
2022-08-02T15:12:06.574Z,99813.78
2022-08-02T15:14:33.040Z,99932.78
2022-08-02T15:16:59.381Z,100019.78
2022-08-02T15:19:37.734Z,100134.31
2022-08-02T15:22:15.798Z,99866.84
2022-08-02T15:24:42.660Z,100038.19
2022-08-02T15:27:09.146Z,99979.84
2022-08-02T15:29:35.406Z,99908.22
2022-08-02T15:32:03.255Z,99976.50
2022-08-02T15:34:32.520Z,100061.69
2022-08-02T15:36:58.908Z,100079.91
2022-08-02T15:39:26.305Z,99929.97
2022-08-02T15:41:53.966Z,100108.66
2022-08-02T15:44:20.349Z,100126.81
2022-08-02T15:46:47.738Z,100157.28
2022-08-02T15:49:14.075Z,100290.56
2022-08-02T15:51:40.472Z,100333.41
2022-08-02T15:54:06.805Z,100136.78
2022-08-02T15:56:33.087Z,100176.63
2022-08-02T15:58:59.402Z,100292.28
2022-08-02T16:01:32.034Z,100211.19
2022-08-02T16:04:05.042Z,100321.69
2022-08-02T16:06:31.294Z,100333.53
2022-08-02T16:08:57.563Z,100384.41
2022-08-02T16:11:23.816Z,100568.16
2022-08-02T16:13:53.098Z,100892.56
2022-08-02T16:16:20.910Z,100838.72
2022-08-02T16:18:47.194Z,100232.88
2022-08-02T16:21:13.439Z,100123.03
2022-08-02T16:24:01.664Z,100161.09
2022-08-02T16:26:25.971Z,100128.03
2022-08-02T16:28:52.512Z,100001.50
2022-08-02T16:31:18.761Z,100265.81
2022-08-02T16:33:45.005Z,100588.44
2022-08-02T16:36:11.581Z,101002.41
2022-08-02T16:38:37.957Z,100892.44
2022-08-02T16:41:04.251Z,100562.25
2022-08-02T16:43:30.693Z,100415.16
2022-08-02T16:45:57.048Z,100757.59
2022-08-02T16:48:23.305Z,100685.81
2022-08-02T16:50:50.445Z,100666.59
2022-08-02T16:53:30.546Z,101049.69
2022-08-02T16:56:03.912Z,100733.03
2022-08-02T16:58:30.167Z,100982.06
2022-08-02T17:00:56.444Z,100742.47
2022-08-02T17:03:24.098Z,100668.13
2022-08-02T17:05:59.903Z,100268.16
2022-08-02T17:08:31.488Z,100440.44
2022-08-02T17:10:58.473Z,100081.53
2022-08-02T17:13:29.721Z,100537.81
2022-08-02T17:16:17.157Z,100207.25
2022-08-02T17:18:43.053Z,100118.31
2022-08-02T17:21:13.321Z,100165.00
2022-08-02T17:24:05.828Z,100278.56
2022-08-02T17:26:25.818Z,99911.31
2022-08-02T17:29:15.097Z,99970.38
2022-08-02T17:31:44.403Z,100571.50
2022-08-02T17:34:27.324Z,100489.69
2022-08-02T17:36:53.575Z,100655.91
2022-08-02T17:39:19.825Z,100841.06
2022-08-02T17:41:49.017Z,100716.28
2022-08-02T17:44:15.865Z,100712.47
2022-08-02T17:47:02.090Z,100607.78
2022-08-02T17:49:28.547Z,100642.13
2022-08-02T17:52:47.672Z,100626.41
2022-08-02T17:54:42.357Z,100547.69
2022-08-02T17:57:09.980Z,100473.81
2022-08-02T17:59:41.883Z,100493.13
2022-08-02T18:02:08.652Z,100639.00
2022-08-02T18:04:34.895Z,100776.59
2022-08-02T18:07:03.957Z,100921.31
2022-08-02T18:09:31.019Z,100908.44
2022-08-02T18:11:57.948Z,100954.78
2022-08-02T18:14:24.405Z,101105.84
2022-08-02T18:16:52.726Z,101023.53
2022-08-02T18:19:18.964Z,100954.69
2022-08-02T18:21:45.606Z,100887.13
2022-08-02T18:24:12.005Z,100841.38
2022-08-02T18:26:38.359Z,100871.28
2022-08-02T18:29:05.049Z,101010.41
2022-08-02T18:31:39.330Z,101123.75
2022-08-02T18:34:06.002Z,101160.66
2022-08-02T18:36:32.246Z,101201.25
2022-08-02T18:38:59.131Z,101186.88
2022-08-02T18:41:25.407Z,101167.25
2022-08-02T18:43:54.909Z,101142.53
2022-08-02T18:46:21.237Z,101165.53
2022-08-02T18:48:47.820Z,101209.31
2022-08-02T18:51:14.561Z,101213.53
2022-08-02T18:53:42.144Z,101183.19
2022-08-02T18:56:09.144Z,101132.63
2022-08-02T18:58:35.390Z,101061.31
2022-08-02T19:01:05.049Z,101053.19
2022-08-02T19:03:31.656Z,101043.66
2022-08-02T19:06:03.514Z,101040.34
2022-08-02T19:08:33.054Z,101058.25
2022-08-02T19:11:02.549Z,101047.81
2022-08-02T19:13:29.170Z,101061.25
2022-08-02T19:15:55.882Z,101025.16
2022-08-02T19:18:26.949Z,100966.03
2022-08-02T19:21:01.278Z,100969.31
2022-08-02T19:23:31.664Z,100991.66
2022-08-02T19:25:57.900Z,101103.34
2022-08-02T19:28:26.508Z,101147.94
2022-08-02T19:30:54.233Z,101088.25
2022-08-02T19:33:54.505Z,101023.78
2022-08-02T19:36:06.838Z,100988.97
2022-08-02T19:38:33.071Z,100934.59
2022-08-02T19:40:59.326Z,100904.25
2022-08-02T19:44:27.296Z,100936.78
2022-08-02T19:46:15.858Z,100885.91
2022-08-02T19:48:42.417Z,100938.63
2022-08-02T19:51:10.398Z,100937.63
2022-08-02T19:53:46.923Z,100947.31
2022-08-02T19:56:20.132Z,100997.22
2022-08-02T19:58:47.789Z,101043.47
2022-08-02T20:01:14.967Z,101057.69
2022-08-02T20:03:51.669Z,101110.06
2022-08-02T20:06:19.231Z,101134.09
2022-08-02T20:08:53.320Z,101178.88
2022-08-02T20:11:24.713Z,101306.66
2022-08-02T20:13:51.579Z,101359.47
2022-08-02T20:16:20.735Z,101308.81
2022-08-02T20:18:54.386Z,101203.56
2022-08-02T20:21:35.595Z,101085.22
2022-08-02T20:24:03.862Z,101023.06
2022-08-02T20:26:30.120Z,101025.88
2022-08-02T20:28:57.830Z,100997.56
2022-08-02T20:31:28.834Z,100957.78
2022-08-02T20:33:56.744Z,100926.25
2022-08-02T20:36:23.170Z,100916.03
2022-08-02T20:38:49.404Z,100874.34
2022-08-02T20:41:21.580Z,100956.34
2022-08-02T20:43:48.334Z,100962.19
2022-08-02T20:46:14.982Z,100921.06
2022-08-02T20:48:41.295Z,100878.47
2022-08-02T20:51:11.998Z,100860.44
2022-08-02T20:53:54.582Z,100870.75
2022-08-02T20:56:21.571Z,100979.00
2022-08-02T20:58:47.810Z,100959.81
2022-08-02T21:01:18.731Z,100996.94
2022-08-02T21:03:47.612Z,101134.19
2022-08-02T21:06:24.818Z,101184.69
2022-08-02T21:08:54.222Z,101126.34
2022-08-02T21:11:20.469Z,101162.00
2022-08-02T21:14:08.815Z,101221.22
2022-08-02T21:16:35.784Z,101170.34
2022-08-02T21:19:02.153Z,101144.63
2022-08-02T21:21:28.633Z,101082.34
2022-08-02T21:23:56.135Z,101043.50
2022-08-02T21:29:08.622Z,100797.97
2022-08-02T21:31:36.159Z,100837.19
2022-08-02T21:34:03.438Z,100910.25
2022-08-02T21:36:48.416Z,100915.41
2022-08-02T21:39:14.670Z,100884.53
2022-08-02T21:44:27.310Z,100937.72
2022-08-02T21:46:55.603Z,100900.88
2022-08-02T21:49:40.650Z,100902.47
2022-08-02T21:52:08.716Z,100938.97
2022-08-02T21:54:35.059Z,100962.78
2022-08-02T21:57:01.303Z,100981.34
2022-08-02T21:59:30.354Z,100988.34
2022-08-02T22:01:59.158Z,100992.84
2022-08-02T22:04:25.938Z,100900.00
2022-08-02T22:06:52.470Z,100848.41
2022-08-02T22:09:44.013Z,100762.50
2022-08-02T22:12:09.774Z,100732.88
2022-08-02T22:14:37.008Z,100691.69
2022-08-02T22:17:08.764Z,100772.50
2022-08-02T22:19:35.448Z,100741.78
2022-08-02T22:22:01.688Z,100706.06
2022-08-02T22:24:30.010Z,100805.16
2022-08-02T22:26:56.707Z,100788.91
2022-08-02T22:29:22.965Z,100808.38
2022-08-02T22:31:49.193Z,100828.53
2022-08-02T22:34:37.035Z,100802.00
2022-08-02T22:37:05.681Z,100763.28
2022-08-02T22:39:32.273Z,100815.78
2022-08-02T22:42:05.117Z,100824.00
2022-08-02T22:44:33.874Z,100815.56
2022-08-02T22:47:00.288Z,100762.06
2022-08-02T22:49:38.797Z,100774.53
2022-08-02T22:52:20.178Z,100722.28
2022-08-02T22:54:47.366Z,100695.75
2022-08-02T22:57:13.596Z,100738.19
2022-08-02T22:59:03.343Z,100921.19
2022-08-02T22:59:10.714Z,100940.78
2022-08-02T22:59:40.799Z,100735.19
2022-08-02T23:02:07.680Z,100664.84
2022-08-02T23:04:33.938Z,100706.22
2022-08-02T23:07:00.192Z,100693.44
2022-08-02T23:09:26.449Z,100756.78
2022-08-02T23:11:52.702Z,100830.38
2022-08-02T23:14:18.963Z,100807.31
2022-08-02T23:16:45.201Z,100759.41
2022-08-02T23:19:11.472Z,100729.28
2022-08-02T23:22:00.950Z,100698.56
2022-08-02T23:24:23.955Z,100690.59
2022-08-02T23:26:50.202Z,100727.88
2022-08-02T23:29:16.475Z,100788.56
2022-08-02T23:31:42.723Z,100770.63
2022-08-02T23:34:11.233Z,100844.91
2022-08-02T23:36:37.470Z,100904.63
2022-08-02T23:39:03.730Z,100885.09
2022-08-02T23:41:29.980Z,100846.88
2022-08-02T23:44:12.509Z,100929.38
2022-08-02T23:46:40.623Z,100951.50
2022-08-02T23:49:06.912Z,100982.19
2022-08-02T23:51:33.189Z,101007.53
2022-08-02T23:53:59.447Z,100950.72
2022-08-02T23:56:25.689Z,100790.91
2022-08-02T23:58:51.940Z,100668.91
